To NAV CANADA Home Page Login to a new session Search on AWWS site Disclaimer Vers la page française équivalente Tips FAQ What's new on the site To the Forecasts and Observations / NOTAM section To "File a Flight Plan" website Publications and other links Update of the User's profile FIC Telephone Numbers My Weather Data Folder Route Weather Data Regional Weather Data Local Weather Data To the Forecasts and Observations / NOTAM section
Request Generated 07/18/2019 at 15:54:23 UTC . Weather information available at that time is displayed.

METAR/TAF

KINGSTON/ON    

METAR CYGK 181500Z 06007KT 030V100 15SM FEW025 FEW080 BKN240 25/19 A2995 RMK CU1AC1CI5 SLP142 DENSITY ALT 1500FT=
METAR CYGK 181400Z 02005KT 360V070 15SM FEW030 FEW080 BKN200 24/19 A2997 RMK CU1AC2CI5 CU TR SLP148 DENSITY ALT 1400FT=
METAR CYGK 181300Z 04009KT 010V080 15SM FEW030 FEW130 SCT250 23/19 A2996 RMK SC1AC1CI2 SC TR SLP145 DENSITY ALT 1300FT=

TAF CYGK 181338Z 1814/1902 04010KT P6SM FEW030 SCT250
BECMG 1815/1817 18010KT
FM182300 18006KT P6SM FEW030 BKN280
RMK NXT FCST BY 182000Z=
Your time UTC time
Weather data provided by Environment Canada and NAV CANADA